createdAt,value
2023-03-16T00:00:27.782Z,6.90
2023-03-16T00:03:30.892Z,7.18
2023-03-16T00:06:33.247Z,8.70
2023-03-16T00:09:40.937Z,3.45
2023-03-16T00:12:44.919Z,7.72
2023-03-16T00:15:59.465Z,5.03
2023-03-16T00:19:03.439Z,8.38
2023-03-16T00:22:06.044Z,7.45
2023-03-16T00:25:09.927Z,7.40
2023-03-16T00:28:14.049Z,4.47
2023-03-16T00:31:16.279Z,7.22
2023-03-16T00:34:19.180Z,5.75
2023-03-16T00:37:23.772Z,6.90
2023-03-16T00:40:26.970Z,8.15
2023-03-16T00:43:40.843Z,10.30
2023-03-16T00:46:44.342Z,13.45
2023-03-16T00:49:46.894Z,4.22
2023-03-16T00:52:50.129Z,4.78
2023-03-16T00:55:53.494Z,4.35
2023-03-16T00:58:57.917Z,8.32
2023-03-16T01:02:00.692Z,6.93
2023-03-16T01:05:05.705Z,4.47
2023-03-16T01:08:09.204Z,6.05
2023-03-16T01:11:16.948Z,4.95
2023-03-16T01:14:22.756Z,3.65
2023-03-16T01:17:25.625Z,6.87
2023-03-16T01:20:28.245Z,9.85
2023-03-16T01:23:33.475Z,6.72
2023-03-16T01:26:37.401Z,6.65
2023-03-16T01:29:43.524Z,8.88
2023-03-16T01:32:46.092Z,4.30
2023-03-16T01:36:09.495Z,6.65
2023-03-16T01:39:14.979Z,5.20
2023-03-16T01:42:19.517Z,2.95
2023-03-16T01:46:00.349Z,5.93
2023-03-16T01:49:15.166Z,3.22
2023-03-16T01:52:34.465Z,8.10
2023-03-16T01:55:37.534Z,7.00
2023-03-16T01:58:44.070Z,9.27
2023-03-16T02:01:48.500Z,4.28
2023-03-16T02:05:04.047Z,5.07
2023-03-16T02:08:08.428Z,6.00
2023-03-16T02:11:12.838Z,4.75
2023-03-16T02:14:15.614Z,8.90
2023-03-16T02:17:22.802Z,11.12
2023-03-16T02:20:37.054Z,3.97
2023-03-16T02:23:41.927Z,7.50
2023-03-16T02:26:57.553Z,6.05
2023-03-16T02:30:11.686Z,4.00
2023-03-16T02:33:17.678Z,8.27
2023-03-16T02:36:21.820Z,5.55
2023-03-16T02:39:24.272Z,9.80
2023-03-16T02:42:28.943Z,7.87
2023-03-16T02:45:53.819Z,10.18
2023-03-16T02:49:16.426Z,8.90
2023-03-16T02:52:19.660Z,8.52
2023-03-16T02:55:23.553Z,7.03
2023-03-16T02:58:25.903Z,8.25
2023-03-16T03:01:28.436Z,6.07
2023-03-16T03:04:32.934Z,5.78
2023-03-16T03:07:35.645Z,5.37
2023-03-16T03:10:39.934Z,8.60
2023-03-16T03:13:44.751Z,6.07
2023-03-16T03:16:48.396Z,6.57
2023-03-16T03:19:51.249Z,5.30
2023-03-16T03:22:53.888Z,6.43
2023-03-16T03:26:01.065Z,16.85
2023-03-16T03:29:05.148Z,6.47
2023-03-16T03:32:08.621Z,6.72
2023-03-16T03:35:13.228Z,11.65
2023-03-16T03:38:18.302Z,7.20
2023-03-16T03:41:22.496Z,7.12
2023-03-16T03:44:27.023Z,7.28
2023-03-16T03:47:30.081Z,7.30
2023-03-16T03:50:33.405Z,8.15
2023-03-16T03:53:36.962Z,5.18
2023-03-16T03:56:41.704Z,7.25
2023-03-16T03:59:44.671Z,12.82
2023-03-16T04:02:49.120Z,8.98
2023-03-16T04:05:52.878Z,9.18
2023-03-16T04:08:55.335Z,14.10
2023-03-16T04:12:01.909Z,8.27
2023-03-16T04:15:04.760Z,13.70
2023-03-16T04:18:09.559Z,6.30
2023-03-16T04:21:16.561Z,8.05
2023-03-16T04:24:22.381Z,8.98
2023-03-16T04:27:24.902Z,11.90
2023-03-16T04:30:27.717Z,8.93
2023-03-16T04:33:32.373Z,6.12
2023-03-16T04:36:35.863Z,5.70
2023-03-16T04:39:40.775Z,7.95
2023-03-16T04:42:45.917Z,10.20
2023-03-16T04:45:49.218Z,17.70
2023-03-16T04:48:53.207Z,6.57
2023-03-16T04:51:55.933Z,11.25
2023-03-16T04:54:58.712Z,9.38
2023-03-16T04:58:01.527Z,6.90
2023-03-16T05:01:08.292Z,8.68
2023-03-16T05:04:17.193Z,13.57
2023-03-16T05:07:21.736Z,11.55
2023-03-16T05:10:24.494Z,14.00
2023-03-16T05:13:28.106Z,7.82
2023-03-16T05:16:33.365Z,13.52
2023-03-16T05:19:36.434Z,9.23
2023-03-16T05:22:44.275Z,10.32
2023-03-16T05:25:49.164Z,14.30
2023-03-16T05:28:52.440Z,9.18
2023-03-16T05:31:59.430Z,11.68
2023-03-16T05:35:03.324Z,12.05
2023-03-16T05:38:06.669Z,11.30
2023-03-16T05:41:10.374Z,10.95
2023-03-16T05:44:14.722Z,11.95
2023-03-16T05:47:18.954Z,12.93
2023-03-16T05:50:22.628Z,17.15
2023-03-16T05:53:28.764Z,14.50
2023-03-16T05:56:32.002Z,12.18
2023-03-16T05:59:34.763Z,12.95
2023-03-16T06:02:38.759Z,8.27
2023-03-16T06:05:42.774Z,7.15
2023-03-16T06:08:48.401Z,9.57
2023-03-16T06:11:52.568Z,11.50
2023-03-16T06:14:55.308Z,14.32
2023-03-16T06:17:58.215Z,17.00
2023-03-16T06:21:01.300Z,13.85
2023-03-16T06:24:07.745Z,11.55
2023-03-16T06:27:10.934Z,15.63
2023-03-16T06:30:19.809Z,14.57
2023-03-16T06:33:22.810Z,7.20
2023-03-16T06:36:26.566Z,9.50
2023-03-16T06:39:32.462Z,9.95
2023-03-16T06:42:38.418Z,8.82
2023-03-16T06:45:43.496Z,8.70
2023-03-16T06:48:47.560Z,8.68
2023-03-16T06:51:50.213Z,9.90
2023-03-16T06:54:54.416Z,9.23
2023-03-16T06:57:57.749Z,7.15
2023-03-16T07:01:04.906Z,9.65
2023-03-16T07:04:07.276Z,5.07
2023-03-16T07:07:11.698Z,12.45
2023-03-16T07:10:17.346Z,6.93
2023-03-16T07:13:20.734Z,7.90
2023-03-16T07:16:24.627Z,8.38
2023-03-16T07:19:28.855Z,8.43
2023-03-16T07:22:32.497Z,10.05
2023-03-16T07:25:35.377Z,7.40
2023-03-16T07:28:39.757Z,8.50
2023-03-16T07:31:43.218Z,7.85
2023-03-16T07:34:47.763Z,10.95
2023-03-16T07:37:51.140Z,7.60
2023-03-16T07:40:54.380Z,7.20
2023-03-16T07:43:58.394Z,10.65
2023-03-16T07:47:01.682Z,9.38
2023-03-16T07:50:06.844Z,8.23
2023-03-16T07:53:12.412Z,9.93
2023-03-16T07:56:16.541Z,15.65
2023-03-16T07:59:21.083Z,8.02
2023-03-16T08:02:23.697Z,11.27
2023-03-16T08:05:27.893Z,8.43
2023-03-16T08:08:33.174Z,7.45
2023-03-16T08:11:36.246Z,9.95
2023-03-16T08:14:39.259Z,7.20
2023-03-16T08:17:42.367Z,8.50
2023-03-16T08:20:46.384Z,6.97
2023-03-16T08:23:50.508Z,10.25
2023-03-16T08:26:53.534Z,7.95
2023-03-16T08:29:56.250Z,6.20
2023-03-16T08:33:01.505Z,9.82
2023-03-16T08:36:06.996Z,12.98
2023-03-16T08:39:11.947Z,9.07
2023-03-16T08:42:16.738Z,8.43
2023-03-16T08:45:19.999Z,8.25
2023-03-16T08:48:22.759Z,9.75
2023-03-16T08:51:25.963Z,7.00
2023-03-16T08:54:29.091Z,9.80
2023-03-16T08:57:34.724Z,8.30
2023-03-16T09:00:38.402Z,10.35
2023-03-16T09:03:42.316Z,10.93
2023-03-16T09:06:45.635Z,9.55
2023-03-16T09:09:48.733Z,5.32
2023-03-16T09:12:52.209Z,9.88
2023-03-16T09:15:54.741Z,7.87
2023-03-16T09:18:58.458Z,8.35
2023-03-16T09:22:00.654Z,8.15
2023-03-16T09:25:07.409Z,8.75
2023-03-16T09:28:09.790Z,6.28
2023-03-16T09:31:20.056Z,13.05
2023-03-16T09:37:26.996Z,9.77
2023-03-16T09:40:30.835Z,12.45
2023-03-16T09:44:00.505Z,8.10
2023-03-16T09:47:04.932Z,10.00
2023-03-16T09:50:14.766Z,12.50
2023-03-16T09:53:29.352Z,9.18
2023-03-16T09:56:42.317Z,10.02
2023-03-16T09:59:45.564Z,9.70
2023-03-16T10:03:06.338Z,7.87
2023-03-16T10:06:13.837Z,7.35
2023-03-16T10:09:34.727Z,10.48
2023-03-16T10:12:43.545Z,9.85
2023-03-16T10:15:48.214Z,6.72
2023-03-16T10:18:59.684Z,11.98
2023-03-16T10:22:17.648Z,8.43
2023-03-16T10:25:26.677Z,6.97
2023-03-16T10:28:32.229Z,6.80
2023-03-16T10:31:35.385Z,5.78
2023-03-16T10:34:37.745Z,6.90
2023-03-16T10:37:41.517Z,6.15
2023-03-16T10:40:44.505Z,4.75
2023-03-16T10:43:53.174Z,10.23
2023-03-16T10:47:08.203Z,4.32
2023-03-16T10:50:16.717Z,9.40
2023-03-16T10:53:26.840Z,7.75
2023-03-16T10:56:34.300Z,5.30
2023-03-16T10:59:37.126Z,4.82
2023-03-16T11:02:40.699Z,6.05
2023-03-16T11:05:42.948Z,8.95
2023-03-16T11:08:45.565Z,4.50
2023-03-16T11:11:49.512Z,10.98
2023-03-16T11:14:52.824Z,5.87
2023-03-16T11:17:55.527Z,5.70
2023-03-16T11:21:12.752Z,5.30
2023-03-16T11:24:24.077Z,10.57
2023-03-16T11:27:33.112Z,6.62
2023-03-16T11:30:41.544Z,6.53
2023-03-16T11:33:44.245Z,5.80
2023-03-16T11:37:05.460Z,5.90
2023-03-16T11:40:16.960Z,6.28
2023-03-16T11:43:31.495Z,3.97
2023-03-16T11:46:44.621Z,5.93
2023-03-16T11:50:25.975Z,7.78
2023-03-16T11:53:41.202Z,3.65
2023-03-16T11:56:49.619Z,5.18
2023-03-16T12:00:02.948Z,4.20
2023-03-16T12:03:24.861Z,11.12
2023-03-16T12:07:00.880Z,6.47
2023-03-16T12:10:25.358Z,4.80
2023-03-16T12:13:47.118Z,4.65
2023-03-16T12:17:14.807Z,5.95
2023-03-16T12:20:26.371Z,8.43
2023-03-16T12:23:36.063Z,3.53
2023-03-16T12:26:42.133Z,9.18
2023-03-16T12:30:03.681Z,3.75
2023-03-16T12:33:18.534Z,3.55
2023-03-16T12:36:58.497Z,5.50
2023-03-16T12:40:19.192Z,5.45
2023-03-16T12:43:49.321Z,2.92
2023-03-16T12:47:05.620Z,4.12
2023-03-16T12:50:15.012Z,3.00
2023-03-16T12:53:40.429Z,3.22
2023-03-16T12:56:47.715Z,5.07
2023-03-16T12:59:58.358Z,2.80
2023-03-16T13:03:01.542Z,2.75
2023-03-16T13:06:04.542Z,3.15
2023-03-16T13:09:07.328Z,2.85
2023-03-16T13:12:21.431Z,4.30
2023-03-16T13:15:29.954Z,6.78
2023-03-16T13:21:43.547Z,4.10
2023-03-16T13:24:55.235Z,4.72
2023-03-16T13:28:00.131Z,3.60
2023-03-16T13:31:03.445Z,3.05
2023-03-16T13:34:11.996Z,2.22
2023-03-16T13:37:19.900Z,4.65
2023-03-16T13:40:27.837Z,2.47
2023-03-16T13:43:33.109Z,2.37
2023-03-16T13:46:35.400Z,2.97
2023-03-16T13:50:01.716Z,3.83
2023-03-16T13:53:10.464Z,3.10
2023-03-16T13:56:16.085Z,2.53
2023-03-16T13:59:20.021Z,3.90
2023-03-16T14:02:23.250Z,3.45
2023-03-16T14:05:33.381Z,2.90
2023-03-16T14:08:35.846Z,4.45
2023-03-16T14:11:38.729Z,3.90
2023-03-16T14:14:41.869Z,4.50
2023-03-16T14:17:44.938Z,3.95
2023-03-16T14:20:51.130Z,4.00
2023-03-16T14:23:57.849Z,2.65
2023-03-16T14:27:23.579Z,3.60
2023-03-16T14:30:28.595Z,3.17
2023-03-16T14:33:35.789Z,4.28
2023-03-16T14:36:39.420Z,3.00
2023-03-16T14:39:42.137Z,2.60
2023-03-16T14:42:45.682Z,2.45
2023-03-16T14:45:48.327Z,2.92
2023-03-16T14:48:50.824Z,2.03
2023-03-16T14:51:56.545Z,2.85
2023-03-16T14:55:00.782Z,2.78
2023-03-16T14:58:04.792Z,3.92
2023-03-16T15:01:14.327Z,2.72
2023-03-16T15:04:20.643Z,4.22
2023-03-16T15:07:31.812Z,11.00
2023-03-16T15:10:36.307Z,5.80
2023-03-16T15:13:42.060Z,4.10
2023-03-16T15:16:44.271Z,3.12
2023-03-16T15:19:47.061Z,6.22
2023-03-16T15:22:51.742Z,3.97
2023-03-16T15:26:00.036Z,2.22
2023-03-16T15:29:02.405Z,4.37
2023-03-16T15:32:12.678Z,4.40
2023-03-16T15:35:16.767Z,1.73
2023-03-16T15:38:23.504Z,3.65
2023-03-16T15:41:30.146Z,4.57
2023-03-16T15:44:35.357Z,4.60
2023-03-16T15:47:37.514Z,5.32
2023-03-16T15:50:52.378Z,3.67
2023-03-16T15:53:58.639Z,3.40
2023-03-16T15:57:02.630Z,3.53
2023-03-16T16:00:05.617Z,4.28
2023-03-16T16:03:11.716Z,6.35
2023-03-16T16:06:14.543Z,4.18
2023-03-16T16:09:17.611Z,2.80
2023-03-16T16:12:21.376Z,3.08
2023-03-16T16:15:29.483Z,5.25
2023-03-16T16:18:36.478Z,2.47
2023-03-16T16:21:38.960Z,3.87
2023-03-16T16:24:41.216Z,5.32
2023-03-16T16:27:44.203Z,2.78
2023-03-16T16:30:47.526Z,1.98
2023-03-16T16:33:50.460Z,5.32
2023-03-16T16:36:54.131Z,3.37
2023-03-16T16:39:56.943Z,6.28
2023-03-16T16:43:04.784Z,11.12
2023-03-16T16:46:15.418Z,2.78
2023-03-16T16:49:28.159Z,8.90
2023-03-16T16:52:32.255Z,3.97
2023-03-16T16:55:34.567Z,7.40
2023-03-16T16:58:38.088Z,5.55
2023-03-16T17:01:40.659Z,6.35
2023-03-16T17:04:43.181Z,6.07
2023-03-16T17:07:45.790Z,6.72
2023-03-16T17:10:49.287Z,5.90
2023-03-16T17:13:53.862Z,12.57
2023-03-16T17:16:59.779Z,5.82
2023-03-16T17:20:05.772Z,9.25
2023-03-16T17:23:27.973Z,12.30
2023-03-16T17:26:40.246Z,15.20
2023-03-16T17:29:42.693Z,6.03
2023-03-16T17:32:44.912Z,10.43
2023-03-16T17:35:48.242Z,7.28
2023-03-16T17:38:51.100Z,11.80
2023-03-16T17:42:01.261Z,5.50
2023-03-16T17:45:04.930Z,7.40
2023-03-16T17:48:13.466Z,7.57
2023-03-16T17:51:16.575Z,7.77
2023-03-16T17:54:19.065Z,6.32
2023-03-16T17:57:27.418Z,7.60
2023-03-16T18:00:32.833Z,7.15
2023-03-16T18:03:35.656Z,11.12
2023-03-16T18:06:38.558Z,5.65
2023-03-16T18:09:41.080Z,5.53
2023-03-16T18:12:45.433Z,8.52
2023-03-16T18:15:49.178Z,6.85
2023-03-16T18:18:55.152Z,4.75
2023-03-16T18:21:58.788Z,10.02
2023-03-16T18:25:01.991Z,5.05
2023-03-16T18:28:05.666Z,4.82
2023-03-16T18:31:19.194Z,6.78
2023-03-16T18:34:23.898Z,5.95
2023-03-16T18:37:28.104Z,12.18
2023-03-16T18:40:31.650Z,8.43
2023-03-16T18:43:33.968Z,7.40
2023-03-16T18:46:38.463Z,9.48
2023-03-16T18:49:40.876Z,6.10
2023-03-16T18:52:43.375Z,6.28
2023-03-16T18:55:45.652Z,12.27
2023-03-16T18:58:52.678Z,6.43
2023-03-16T19:01:55.035Z,8.57
2023-03-16T19:04:59.905Z,15.43
2023-03-16T19:08:04.756Z,20.52
2023-03-16T19:11:08.217Z,15.75
2023-03-16T19:14:16.439Z,15.45
2023-03-16T19:17:18.865Z,11.95
2023-03-16T19:20:24.740Z,18.95
2023-03-16T19:23:32.576Z,13.38
2023-03-16T19:26:39.090Z,14.10
2023-03-16T19:29:44.353Z,12.85
2023-03-16T19:32:48.848Z,12.73
2023-03-16T19:35:53.043Z,17.15
2023-03-16T19:38:58.250Z,7.85
2023-03-16T19:42:00.978Z,15.30
2023-03-16T19:45:04.714Z,8.77
2023-03-16T19:48:16.627Z,12.43
2023-03-16T19:51:19.993Z,12.37
2023-03-16T19:54:27.901Z,9.80
2023-03-16T19:57:31.600Z,9.55
2023-03-16T20:00:34.723Z,10.85
2023-03-16T20:03:38.548Z,11.55
2023-03-16T20:06:40.966Z,11.18
2023-03-16T20:09:44.146Z,12.23
2023-03-16T20:12:48.195Z,10.75
2023-03-16T20:15:51.267Z,10.20
2023-03-16T20:18:55.818Z,10.10
2023-03-16T20:21:58.384Z,8.82
2023-03-16T20:25:02.141Z,12.90
2023-03-16T20:28:15.986Z,10.77
2023-03-16T20:31:22.462Z,10.32
2023-03-16T20:34:28.883Z,18.83
2023-03-16T20:37:31.314Z,9.27
2023-03-16T20:40:33.817Z,9.32
2023-03-16T20:43:36.188Z,11.02
2023-03-16T20:46:41.159Z,12.23
2023-03-16T20:49:43.884Z,14.25
2023-03-16T20:52:46.939Z,10.73
2023-03-16T20:55:50.944Z,14.55
2023-03-16T20:58:55.924Z,15.45
2023-03-16T21:01:58.478Z,9.30
2023-03-16T21:05:04.385Z,12.80
2023-03-16T21:08:06.557Z,13.25
2023-03-16T21:11:38.643Z,7.93
2023-03-16T21:14:40.925Z,12.10
2023-03-16T21:17:43.793Z,13.25
2023-03-16T21:20:48.536Z,11.93
2023-03-16T21:23:51.492Z,13.88
2023-03-16T21:26:53.893Z,15.07
2023-03-16T21:30:00.336Z,14.82
2023-03-16T21:33:03.010Z,11.93
2023-03-16T21:36:12.397Z,15.60
2023-03-16T21:42:21.456Z,11.85
2023-03-16T21:45:23.950Z,11.30
2023-03-16T21:48:37.677Z,9.73
2023-03-16T21:51:42.923Z,15.52
2023-03-16T21:54:45.464Z,12.48
2023-03-16T21:57:48.013Z,14.85
2023-03-16T22:00:52.168Z,14.90
2023-03-16T22:04:04.392Z,14.95
2023-03-16T22:07:11.972Z,13.48
2023-03-16T22:10:15.407Z,12.48
2023-03-16T22:13:21.073Z,15.13
2023-03-16T22:16:26.783Z,22.95
2023-03-16T22:19:29.273Z,19.27
2023-03-16T22:22:32.863Z,22.35
2023-03-16T22:25:35.152Z,21.27
2023-03-16T22:28:38.155Z,19.87
2023-03-16T22:31:41.261Z,19.65
2023-03-16T22:34:53.382Z,19.50
2023-03-16T22:37:57.046Z,17.48
2023-03-16T22:40:59.759Z,16.80
2023-03-16T22:44:02.232Z,13.20
2023-03-16T22:47:21.348Z,16.35
2023-03-16T22:50:26.569Z,15.80
2023-03-16T22:53:37.364Z,24.83
2023-03-16T22:56:42.020Z,29.50
2023-03-16T22:59:46.422Z,25.67
2023-03-16T23:02:49.360Z,17.20
2023-03-16T23:05:52.296Z,18.10
2023-03-16T23:08:56.020Z,13.73
2023-03-16T23:11:59.460Z,20.73
2023-03-16T23:15:01.843Z,23.90
2023-03-16T23:18:04.858Z,22.58
2023-03-16T23:21:12.558Z,22.05
2023-03-16T23:24:15.311Z,28.25
2023-03-16T23:27:21.388Z,22.70
2023-03-16T23:30:25.745Z,23.00
2023-03-16T23:33:28.012Z,22.27
2023-03-16T23:36:30.536Z,22.23
2023-03-16T23:39:32.797Z,20.55
2023-03-16T23:42:35.368Z,29.10
2023-03-16T23:45:42.845Z,20.55
2023-03-16T23:48:47.889Z,18.12
2023-03-16T23:51:50.942Z,23.15
2023-03-16T23:54:53.532Z,17.45
2023-03-16T23:57:55.919Z,14.00
